sensor_id;sensor_type;location;lat;lon;timestamp;pressure;altitude;pressure_sealevel;temperature;humidity
9893;BME280;4985;49.092;8.542;2023-05-24T00:00:21;99701.84;;;23.35;52.24
9893;BME280;4985;49.092;8.542;2023-05-24T00:02:48;99701.03;;;23.34;52.24
9893;BME280;4985;49.092;8.542;2023-05-24T00:05:15;99696.47;;;23.35;52.24
9893;BME280;4985;49.092;8.542;2023-05-24T00:07:43;99691.09;;;23.35;52.22
9893;BME280;4985;49.092;8.542;2023-05-24T00:10:10;99684.09;;;23.34;52.23
9893;BME280;4985;49.092;8.542;2023-05-24T00:12:37;99681.41;;;23.34;52.22
9893;BME280;4985;49.092;8.542;2023-05-24T00:15:06;99674.16;;;23.34;52.21
9893;BME280;4985;49.092;8.542;2023-05-24T00:17:33;99673.34;;;23.34;52.21
9893;BME280;4985;49.092;8.542;2023-05-24T00:20:07;99664.25;;;23.35;52.20
9893;BME280;4985;49.092;8.542;2023-05-24T00:22:34;99674.97;;;23.35;52.19
9893;BME280;4985;49.092;8.542;2023-05-24T00:25:02;99667.16;;;23.33;52.19
9893;BME280;4985;49.092;8.542;2023-05-24T00:27:30;99661.19;;;23.31;52.20
9893;BME280;4985;49.092;8.542;2023-05-24T00:29:57;99658.25;;;23.33;52.20
9893;BME280;4985;49.092;8.542;2023-05-24T00:32:25;99659.31;;;23.32;52.20
9893;BME280;4985;49.092;8.542;2023-05-24T00:34:51;99667.38;;;23.32;52.21
9893;BME280;4985;49.092;8.542;2023-05-24T00:37:18;99667.38;;;23.32;52.23
9893;BME280;4985;49.092;8.542;2023-05-24T00:39:44;99664.13;;;23.30;52.22
9893;BME280;4985;49.092;8.542;2023-05-24T00:42:11;99666.00;;;23.29;52.24
9893;BME280;4985;49.092;8.542;2023-05-24T00:44:37;99672.41;;;23.28;52.24
9893;BME280;4985;49.092;8.542;2023-05-24T00:47:04;99677.78;;;23.28;52.25
9893;BME280;4985;49.092;8.542;2023-05-24T00:49:33;99676.97;;;23.28;52.25
9893;BME280;4985;49.092;8.542;2023-05-24T00:52:00;99677.22;;;23.26;52.26
9893;BME280;4985;49.092;8.542;2023-05-24T00:54:27;99671.03;;;23.26;52.28
9893;BME280;4985;49.092;8.542;2023-05-24T00:56:54;99669.41;;;23.24;52.30
9893;BME280;4985;49.092;8.542;2023-05-24T00:59:21;99665.91;;;23.24;52.30
9893;BME280;4985;49.092;8.542;2023-05-24T01:01:48;99661.56;;;23.23;52.31
9893;BME280;4985;49.092;8.542;2023-05-24T01:04:15;99667.75;;;23.23;52.31
9893;BME280;4985;49.092;8.542;2023-05-24T01:06:55;99660.75;;;23.22;52.31
9893;BME280;4985;49.092;8.542;2023-05-24T01:09:32;99660.75;;;23.22;52.32
9893;BME280;4985;49.092;8.542;2023-05-24T01:12:08;99666.34;;;23.21;52.32
9893;BME280;4985;49.092;8.542;2023-05-24T01:14:40;99669.84;;;23.21;52.32
9893;BME280;4985;49.092;8.542;2023-05-24T01:17:15;99663.66;;;23.21;52.32
9893;BME280;4985;49.092;8.542;2023-05-24T01:19:55;99662.84;;;23.20;52.32
9893;BME280;4985;49.092;8.542;2023-05-24T01:22:45;99667.41;;;23.20;52.33
9893;BME280;4985;49.092;8.542;2023-05-24T01:25:20;99669.28;;;23.19;52.33
9893;BME280;4985;49.092;8.542;2023-05-24T01:27:50;99664.94;;;23.18;52.34
9893;BME280;4985;49.092;8.542;2023-05-24T01:30:17;99664.94;;;23.18;52.34
9893;BME280;4985;49.092;8.542;2023-05-24T01:32:45;99668.69;;;23.17;52.35
9893;BME280;4985;49.092;8.542;2023-05-24T01:35:11;99668.69;;;23.17;52.35
9893;BME280;4985;49.092;8.542;2023-05-24T01:37:38;99661.69;;;23.16;52.36
9893;BME280;4985;49.092;8.542;2023-05-24T01:40:06;99669.75;;;23.16;52.35
9893;BME280;4985;49.092;8.542;2023-05-24T01:42:40;99665.44;;;23.15;52.36
9893;BME280;4985;49.092;8.542;2023-05-24T01:45:15;99660.06;;;23.15;52.36
9893;BME280;4985;49.092;8.542;2023-05-24T01:47:52;99670.00;;;23.15;52.35
9893;BME280;4985;49.092;8.542;2023-05-24T01:50:25;99672.69;;;23.15;52.36
9893;BME280;4985;49.092;8.542;2023-05-24T01:52:54;99670.00;;;23.15;52.35
9893;BME280;4985;49.092;8.542;2023-05-24T01:55:26;99670.22;;;23.13;52.36
9893;BME280;4985;49.092;8.542;2023-05-24T01:57:53;99680.97;;;23.13;52.36
9893;BME280;4985;49.092;8.542;2023-05-24T02:00:24;99682.84;;;23.13;52.36
9893;BME280;4985;49.092;8.542;2023-05-24T02:02:51;99682.84;;;23.13;52.37
9893;BME280;4985;49.092;8.542;2023-05-24T02:05:18;99680.41;;;23.11;52.37
9893;BME280;4985;49.092;8.542;2023-05-24T02:07:44;99693.00;;;23.11;52.38
9893;BME280;4985;49.092;8.542;2023-05-24T02:10:11;99681.41;;;23.10;52.37
9893;BME280;4985;49.092;8.542;2023-05-24T02:12:38;99690.53;;;23.09;52.39
9893;BME280;4985;49.092;8.542;2023-05-24T02:15:05;99693.22;;;23.09;52.40
9893;BME280;4985;49.092;8.542;2023-05-24T02:17:33;99694.28;;;23.08;52.38
9893;BME280;4985;49.092;8.542;2023-05-24T02:20:00;99694.28;;;23.08;52.41
9893;BME280;4985;49.092;8.542;2023-05-24T02:22:28;99695.31;;;23.07;52.40
9893;BME280;4985;49.092;8.542;2023-05-24T02:24:54;99695.31;;;23.07;52.41
9893;BME280;4985;49.092;8.542;2023-05-24T02:27:22;99689.13;;;23.07;52.42
9893;BME280;4985;49.092;8.542;2023-05-24T02:29:48;99694.50;;;23.07;52.41
9893;BME280;4985;49.092;8.542;2023-05-24T02:32:15;99700.94;;;23.06;52.43
9893;BME280;4985;49.092;8.542;2023-05-24T02:34:43;99690.44;;;23.04;52.44
9893;BME280;4985;49.092;8.542;2023-05-24T02:37:10;99694.97;;;23.04;52.44
9893;BME280;4985;49.092;8.542;2023-05-24T02:39:38;99701.16;;;23.04;52.44
9893;BME280;4985;49.092;8.542;2023-05-24T02:42:06;99696.84;;;23.03;52.45
9893;BME280;4985;49.092;8.542;2023-05-24T02:44:33;99705.72;;;23.04;52.46
9893;BME280;4985;49.092;8.542;2023-05-24T02:46:59;99697.91;;;23.02;52.45
9893;BME280;4985;49.092;8.542;2023-05-24T02:49:26;99697.09;;;23.02;52.44
9893;BME280;4985;49.092;8.542;2023-05-24T02:51:54;99696.28;;;23.01;52.45
9893;BME280;4985;49.092;8.542;2023-05-24T02:54:21;99690.91;;;23.01;52.45
9893;BME280;4985;49.092;8.542;2023-05-24T02:56:47;99695.47;;;23.01;52.46
9893;BME280;4985;49.092;8.542;2023-05-24T02:59:14;99695.47;;;23.01;52.46
9893;BME280;4985;49.092;8.542;2023-05-24T03:01:40;99693.00;;;22.99;52.47
9893;BME280;4985;49.092;8.542;2023-05-24T03:04:07;99695.69;;;22.99;52.46
9893;BME280;4985;49.092;8.542;2023-05-24T03:06:34;99695.69;;;22.99;52.46
9893;BME280;4985;49.092;8.542;2023-05-24T03:09:02;99694.03;;;22.98;52.46
9893;BME280;4985;49.092;8.542;2023-05-24T03:11:28;99691.34;;;22.98;52.47
9893;BME280;4985;49.092;8.542;2023-05-24T03:13:55;99687.03;;;22.97;52.48
9893;BME280;4985;49.092;8.542;2023-05-24T03:16:21;99685.16;;;22.98;52.47
9893;BME280;4985;49.092;8.542;2023-05-24T03:18:48;99678.97;;;22.97;52.47
9893;BME280;4985;49.092;8.542;2023-05-24T03:21:15;99679.22;;;22.95;52.46
9893;BME280;4985;49.092;8.542;2023-05-24T03:23:44;99676.19;;;22.92;52.48
9893;BME280;4985;49.092;8.542;2023-05-24T03:26:12;99676.53;;;22.95;52.48
9893;BME280;4985;49.092;8.542;2023-05-24T03:28:39;99679.22;;;22.95;52.48
9893;BME280;4985;49.092;8.542;2023-05-24T03:31:06;99681.09;;;22.95;52.48
9893;BME280;4985;49.092;8.542;2023-05-24T03:33:32;99675.72;;;22.95;52.48
9893;BME280;4985;49.092;8.542;2023-05-24T03:35:59;99675.97;;;22.93;52.49
9893;BME280;4985;49.092;8.542;2023-05-24T03:38:26;99684.00;;;22.93;52.49
9893;BME280;4985;49.092;8.542;2023-05-24T03:40:53;99680.75;;;22.91;52.50
9893;BME280;4985;49.092;8.542;2023-05-24T03:43:21;99681.56;;;22.92;52.50
9893;BME280;4985;49.092;8.542;2023-05-24T03:45:48;99677.25;;;22.91;52.51
9893;BME280;4985;49.092;8.542;2023-05-24T03:48:14;99680.75;;;22.91;52.51
9893;BME280;4985;49.092;8.542;2023-05-24T03:50:41;99675.63;;;22.90;52.50
9893;BME280;4985;49.092;8.542;2023-05-24T03:53:07;99679.13;;;22.90;52.51
9893;BME280;4985;49.092;8.542;2023-05-24T03:55:34;99681.22;;;22.88;52.52
9893;BME280;4985;49.092;8.542;2023-05-24T03:58:00;99683.91;;;22.88;52.52
9893;BME280;4985;49.092;8.542;2023-05-24T04:00:28;99684.12;;;22.87;52.54
9893;BME280;4985;49.092;8.542;2023-05-24T04:02:55;99684.94;;;22.87;52.52
9893;BME280;4985;49.092;8.542;2023-05-24T04:05:22;99684.12;;;22.87;52.54
9893;BME280;4985;49.092;8.542;2023-05-24T04:07:51;99677.12;;;22.86;52.52
9893;BME280;4985;49.092;8.542;2023-05-24T04:10:17;99683.31;;;22.86;52.53
9893;BME280;4985;49.092;8.542;2023-05-24T04:12:44;99687.84;;;22.86;52.54
9893;BME280;4985;49.092;8.542;2023-05-24T04:15:11;99688.91;;;22.85;52.53
9893;BME280;4985;49.092;8.542;2023-05-24T04:17:40;99692.41;;;22.85;52.53
9893;BME280;4985;49.092;8.542;2023-05-24T04:20:08;99692.66;;;22.84;52.53
9893;BME280;4985;49.092;8.542;2023-05-24T04:22:35;99689.97;;;22.84;52.53
9893;BME280;4985;49.092;8.542;2023-05-24T04:25:01;99689.97;;;22.84;52.53
9893;BME280;4985;49.092;8.542;2023-05-24T04:27:28;99699.03;;;22.83;52.52
9893;BME280;4985;49.092;8.542;2023-05-24T04:29:55;99695.53;;;22.82;52.53
9893;BME280;4985;49.092;8.542;2023-05-24T04:32:22;99687.47;;;22.82;52.53
9893;BME280;4985;49.092;8.542;2023-05-24T04:34:50;99691.22;;;22.81;52.53
9893;BME280;4985;49.092;8.542;2023-05-24T04:37:17;99695.78;;;22.81;52.55
9893;BME280;4985;49.092;8.542;2023-05-24T04:39:44;99694.97;;;22.80;52.55
9893;BME280;4985;49.092;8.542;2023-05-24T04:42:11;99700.31;;;22.80;52.55
9893;BME280;4985;49.092;8.542;2023-05-24T04:44:39;99703.00;;;22.80;52.56
9893;BME280;4985;49.092;8.542;2023-05-24T04:47:06;99695.19;;;22.79;52.55
9893;BME280;4985;49.092;8.542;2023-05-24T04:49:33;99697.88;;;22.79;52.56
9893;BME280;4985;49.092;8.542;2023-05-24T04:52:01;99703.25;;;22.79;52.56
9893;BME280;4985;49.092;8.542;2023-05-24T04:54:27;99704.28;;;22.78;52.56
9893;BME280;4985;49.092;8.542;2023-05-24T04:56:54;99701.63;;;22.78;52.57
9893;BME280;4985;49.092;8.542;2023-05-24T04:59:20;99709.66;;;22.78;52.57
9893;BME280;4985;49.092;8.542;2023-05-24T05:01:47;99705.34;;;22.77;52.57
9893;BME280;4985;49.092;8.542;2023-05-24T05:04:13;99708.03;;;22.77;52.57
9893;BME280;4985;49.092;8.542;2023-05-24T05:06:41;99709.06;;;22.76;52.57
9893;BME280;4985;49.092;8.542;2023-05-24T05:09:10;99712.56;;;22.76;52.58
9893;BME280;4985;49.092;8.542;2023-05-24T05:11:38;99702.06;;;22.75;52.58
9893;BME280;4985;49.092;8.542;2023-05-24T05:14:05;99708.25;;;22.75;52.59
9893;BME280;4985;49.092;8.542;2023-05-24T05:16:33;99713.84;;;22.74;52.59
9893;BME280;4985;49.092;8.542;2023-05-24T05:19:00;99711.16;;;22.74;52.60
9893;BME280;4985;49.092;8.542;2023-05-24T05:21:28;99711.16;;;22.74;52.61
9893;BME280;4985;49.092;8.542;2023-05-24T05:23:57;99713.03;;;22.73;52.60
9893;BME280;4985;49.092;8.542;2023-05-24T05:26:25;99716.75;;;22.72;52.61
9893;BME280;4985;49.092;8.542;2023-05-24T05:28:52;99714.91;;;22.73;52.62
9893;BME280;4985;49.092;8.542;2023-05-24T05:31:20;99708.94;;;22.71;52.61
9893;BME280;4985;49.092;8.542;2023-05-24T05:33:46;99707.06;;;22.71;52.62
9893;BME280;4985;49.092;8.542;2023-05-24T05:36:13;99706.25;;;22.71;52.63
9893;BME280;4985;49.092;8.542;2023-05-24T05:38:40;99705.44;;;22.70;52.63
9893;BME280;4985;49.092;8.542;2023-05-24T05:41:06;99710.00;;;22.70;52.63
9893;BME280;4985;49.092;8.542;2023-05-24T05:43:34;99704.63;;;22.70;52.63
9893;BME280;4985;49.092;8.542;2023-05-24T05:46:01;99705.69;;;22.69;52.64
9893;BME280;4985;49.092;8.542;2023-05-24T05:48:28;99700.31;;;22.69;52.65
9893;BME280;4985;49.092;8.542;2023-05-24T05:50:54;99703.00;;;22.69;52.65
9893;BME280;4985;49.092;8.542;2023-05-24T05:53:21;99701.38;;;22.67;52.66
9893;BME280;4985;49.092;8.542;2023-05-24T05:55:48;99695.19;;;22.67;52.68
9893;BME280;4985;49.092;8.542;2023-05-24T05:58:15;99693.56;;;22.66;52.69
9893;BME280;4985;49.092;8.542;2023-05-24T06:00:42;99705.09;;;22.66;52.69
9893;BME280;4985;49.092;8.542;2023-05-24T06:03:09;99702.41;;;22.66;52.69
9893;BME280;4985;49.092;8.542;2023-05-24T06:05:36;99705.31;;;22.65;52.69
9893;BME280;4985;49.092;8.542;2023-05-24T06:08:02;99702.63;;;22.65;52.71
9893;BME280;4985;49.092;8.542;2023-05-24T06:10:29;99707.16;;;22.64;52.69
9893;BME280;4985;49.092;8.542;2023-05-24T06:12:55;99713.34;;;22.65;52.69
9893;BME280;4985;49.092;8.542;2023-05-24T06:15:22;99714.19;;;22.65;52.70
9893;BME280;4985;49.092;8.542;2023-05-24T06:17:50;99717.91;;;22.64;52.70
9893;BME280;4985;49.092;8.542;2023-05-24T06:20:17;99712.53;;;22.64;52.70
9893;BME280;4985;49.092;8.542;2023-05-24T06:22:43;99715.03;;;22.66;52.69
9893;BME280;4985;49.092;8.542;2023-05-24T06:25:10;99718.72;;;22.65;52.69
9893;BME280;4985;49.092;8.542;2023-05-24T06:27:39;99717.91;;;22.64;52.70
9893;BME280;4985;49.092;8.542;2023-05-24T06:30:07;99728.63;;;22.64;52.70
9893;BME280;4985;49.092;8.542;2023-05-24T06:32:34;99731.56;;;22.63;52.70
9893;BME280;4985;49.092;8.542;2023-05-24T06:35:03;99736.69;;;22.64;52.70
9893;BME280;4985;49.092;8.542;2023-05-24T06:37:29;99740.44;;;22.63;52.70
9893;BME280;4985;49.092;8.542;2023-05-24T06:39:57;99745.56;;;22.65;52.69
9893;BME280;4985;49.092;8.542;2023-05-24T06:42:24;99745.78;;;22.63;52.68
9893;BME280;4985;49.092;8.542;2023-05-24T06:44:51;99750.72;;;22.66;52.64
9893;BME280;4985;49.092;8.542;2023-05-24T06:47:17;99748.03;;;22.66;52.64
9893;BME280;4985;49.092;8.542;2023-05-24T06:49:44;99752.59;;;22.66;52.63
9893;BME280;4985;49.092;8.542;2023-05-24T06:52:13;99747.22;;;22.66;52.63
9893;BME280;4985;49.092;8.542;2023-05-24T06:54:40;99750.09;;;22.64;52.64
9893;BME280;4985;49.092;8.542;2023-05-24T06:57:06;99740.19;;;22.65;52.64
9893;BME280;4985;49.092;8.542;2023-05-24T06:59:34;99749.09;;;22.65;52.65
9893;BME280;4985;49.092;8.542;2023-05-24T07:02:00;99750.34;;;22.63;52.66
9893;BME280;4985;49.092;8.542;2023-05-24T07:04:27;99754.66;;;22.64;52.67
9893;BME280;4985;49.092;8.542;2023-05-24T07:06:53;99753.03;;;22.63;52.67
9893;BME280;4985;49.092;8.542;2023-05-24T07:09:22;99762.94;;;22.62;52.68
9893;BME280;4985;49.092;8.542;2023-05-24T07:11:49;99755.13;;;22.61;52.71
9893;BME280;4985;49.092;8.542;2023-05-24T07:14:15;99770.41;;;22.60;52.72
9893;BME280;4985;49.092;8.542;2023-05-24T07:16:42;99773.09;;;22.60;52.75
9893;BME280;4985;49.092;8.542;2023-05-24T07:19:08;99775.78;;;22.60;52.74
9893;BME280;4985;49.092;8.542;2023-05-24T07:21:35;99771.22;;;22.61;52.74
9893;BME280;4985;49.092;8.542;2023-05-24T07:24:02;99775.78;;;22.60;52.73
9893;BME280;4985;49.092;8.542;2023-05-24T07:26:30;99770.41;;;22.60;52.72
9893;BME280;4985;49.092;8.542;2023-05-24T07:31:23;99786.50;;;22.60;52.74
9893;BME280;4985;49.092;8.542;2023-05-24T07:33:51;99787.31;;;22.61;52.74
9893;BME280;4985;49.092;8.542;2023-05-24T07:36:18;99792.69;;;22.61;52.74
9893;BME280;4985;49.092;8.542;2023-05-24T07:38:45;99788.16;;;22.61;52.73
9893;BME280;4985;49.092;8.542;2023-05-24T07:41:12;99791.41;;;22.63;52.72
9893;BME280;4985;49.092;8.542;2023-05-24T07:43:40;99787.31;;;22.61;52.72
9893;BME280;4985;49.092;8.542;2023-05-24T07:46:07;99789.78;;;22.62;52.71
9893;BME280;4985;49.092;8.542;2023-05-24T07:48:34;99781.97;;;22.61;52.72
9893;BME280;4985;49.092;8.542;2023-05-24T07:53:27;99789.78;;;22.62;52.70
9893;BME280;4985;49.092;8.542;2023-05-24T07:55:54;99793.50;;;22.61;52.70
9893;BME280;4985;49.092;8.542;2023-05-24T07:58:20;99791.06;;;22.60;52.72
9893;BME280;4985;49.092;8.542;2023-05-24T08:00:48;99793.75;;;22.60;52.74
9893;BME280;4985;49.092;8.542;2023-05-24T08:03:15;99797.25;;;22.60;52.78
9893;BME280;4985;49.092;8.542;2023-05-24T08:05:42;99799.34;;;22.58;52.78
9893;BME280;4985;49.092;8.542;2023-05-24T08:08:08;99796.66;;;22.58;52.79
9893;BME280;4985;49.092;8.542;2023-05-24T08:10:35;99789.66;;;22.57;52.80
9893;BME280;4985;49.092;8.542;2023-05-24T08:13:02;99793.97;;;22.58;52.84
9893;BME280;4985;49.092;8.542;2023-05-24T08:15:29;99793.16;;;22.58;52.86
9893;BME280;4985;49.092;8.542;2023-05-24T08:17:57;99796.06;;;22.56;52.88
9893;BME280;4985;49.092;8.542;2023-05-24T08:20:24;99788.84;;;22.57;52.88
9893;BME280;4985;49.092;8.542;2023-05-24T08:22:51;99788.84;;;22.57;52.88
9893;BME280;4985;49.092;8.542;2023-05-24T08:25:18;99786.16;;;22.57;52.91
9893;BME280;4985;49.092;8.542;2023-05-24T08:27:45;99789.66;;;22.57;52.92
9893;BME280;4985;49.092;8.542;2023-05-24T08:30:12;99791.53;;;22.57;52.93
9893;BME280;4985;49.092;8.542;2023-05-24T08:32:39;99786.97;;;22.57;52.93
9893;BME280;4985;49.092;8.542;2023-05-24T08:35:07;99788.63;;;22.58;52.92
9893;BME280;4985;49.092;8.542;2023-05-24T08:37:34;99784.06;;;22.59;52.92
9893;BME280;4985;49.092;8.542;2023-05-24T08:40:00;99791.28;;;22.58;52.93
9893;BME280;4985;49.092;8.542;2023-05-24T08:42:29;99792.94;;;22.59;52.93
9893;BME280;4985;49.092;8.542;2023-05-24T08:45:00;99795.59;;;22.59;52.91
9893;BME280;4985;49.092;8.542;2023-05-24T08:47:29;99790.25;;;22.59;52.92
9893;BME280;4985;49.092;8.542;2023-05-24T08:49:56;99790.25;;;22.59;52.92
9893;BME280;4985;49.092;8.542;2023-05-24T08:52:25;99793.75;;;22.60;52.92
9893;BME280;4985;49.092;8.542;2023-05-24T08:54:53;99794.56;;;22.60;52.91
9893;BME280;4985;49.092;8.542;2023-05-24T08:57:21;99795.59;;;22.59;52.90
9893;BME280;4985;49.092;8.542;2023-05-24T08:59:48;99792.34;;;22.57;52.90
9893;BME280;4985;49.092;8.542;2023-05-24T09:02:15;99784.06;;;22.59;52.90
9893;BME280;4985;49.092;8.542;2023-05-24T09:04:43;99788.37;;;22.60;52.91
9893;BME280;4985;49.092;8.542;2023-05-24T09:07:13;99786.50;;;22.60;52.89
9893;BME280;4985;49.092;8.542;2023-05-24T09:09:42;99790.00;;;22.61;52.90
9893;BME280;4985;49.092;8.542;2023-05-24T09:12:14;99790.59;;;22.63;52.86
9893;BME280;4985;49.092;8.542;2023-05-24T09:14:44;99800.50;;;22.62;52.86
9893;BME280;4985;49.092;8.542;2023-05-24T09:17:12;99795.37;;;22.61;52.87
9893;BME280;4985;49.092;8.542;2023-05-24T09:19:43;99794.09;;;22.63;52.85
9893;BME280;4985;49.092;8.542;2023-05-24T09:22:12;99807.50;;;22.63;52.86
9893;BME280;4985;49.092;8.542;2023-05-24T09:24:45;99795.16;;;22.62;52.87
9893;BME280;4985;49.092;8.542;2023-05-24T09:27:13;99797.81;;;22.62;52.88
9893;BME280;4985;49.092;8.542;2023-05-24T09:32:07;99805.88;;;22.62;52.87
9893;BME280;4985;49.092;8.542;2023-05-24T09:34:37;99801.31;;;22.63;52.87
9893;BME280;4985;49.092;8.542;2023-05-24T09:37:04;99804.00;;;22.63;52.88
9893;BME280;4985;49.092;8.542;2023-05-24T09:39:31;99803.19;;;22.62;52.87
9893;BME280;4985;49.092;8.542;2023-05-24T09:42:00;99804.00;;;22.63;52.89
9893;BME280;4985;49.092;8.542;2023-05-24T09:44:28;99811.25;;;22.62;52.92
9893;BME280;4985;49.092;8.542;2023-05-24T09:47:00;99800.50;;;22.62;52.96
9893;BME280;4985;49.092;8.542;2023-05-24T09:49:28;99798.66;;;22.63;52.98
9893;BME280;4985;49.092;8.542;2023-05-24T09:51:54;99805.88;;;22.62;53.02
9893;BME280;4985;49.092;8.542;2023-05-24T09:54:21;99803.19;;;22.62;53.01
9893;BME280;4985;49.092;8.542;2023-05-24T09:56:50;99802.16;;;22.63;53.02
9893;BME280;4985;49.092;8.542;2023-05-24T09:59:18;99794.91;;;22.64;53.03
9893;BME280;4985;49.092;8.542;2023-05-24T10:01:45;99795.16;;;22.62;53.02
9893;BME280;4985;49.092;8.542;2023-05-24T10:04:11;99792.22;;;22.64;53.03
9893;BME280;4985;49.092;8.542;2023-05-24T10:06:40;99790.59;;;22.63;53.06
9893;BME280;4985;49.092;8.542;2023-05-24T10:09:08;99790.38;;;22.64;53.06
9893;BME280;4985;49.092;8.542;2023-05-24T10:11:35;99793.03;;;22.64;53.06
9893;BME280;4985;49.092;8.542;2023-05-24T10:14:03;99789.34;;;22.65;53.05
9893;BME280;4985;49.092;8.542;2023-05-24T10:16:32;99789.34;;;22.65;53.03
9893;BME280;4985;49.092;8.542;2023-05-24T10:18:59;99785.59;;;22.66;53.01
9893;BME280;4985;49.092;8.542;2023-05-24T10:21:28;99784.78;;;22.66;53.00
9893;BME280;4985;49.092;8.542;2023-05-24T10:23:58;99788.50;;;22.65;53.03
9893;BME280;4985;49.092;8.542;2023-05-24T10:26:28;99776.12;;;22.64;53.03
9893;BME280;4985;49.092;8.542;2023-05-24T10:29:02;99776.12;;;22.64;53.04
9893;BME280;4985;49.092;8.542;2023-05-24T10:31:33;99775.31;;;22.63;53.07
9893;BME280;4985;49.092;8.542;2023-05-24T10:34:02;99776.94;;;22.64;53.06
9893;BME280;4985;49.092;8.542;2023-05-24T10:36:31;99771.38;;;22.66;53.06
9893;BME280;4985;49.092;8.542;2023-05-24T10:38:58;99767.63;;;22.67;53.03
9893;BME280;4985;49.092;8.542;2023-05-24T10:41:25;99771.13;;;22.67;53.03
9893;BME280;4985;49.092;8.542;2023-05-24T10:43:52;99766.59;;;22.68;53.02
9893;BME280;4985;49.092;8.542;2023-05-24T10:46:19;99764.72;;;22.69;53.02
9893;BME280;4985;49.092;8.542;2023-05-24T10:48:59;99756.66;;;22.69;53.02
9893;BME280;4985;49.092;8.542;2023-05-24T10:51:31;99764.72;;;22.69;53.02
9893;BME280;4985;49.092;8.542;2023-05-24T10:54:16;99762.03;;;22.69;53.06
9893;BME280;4985;49.092;8.542;2023-05-24T10:56:45;99761.56;;;22.72;53.05
9893;BME280;4985;49.092;8.542;2023-05-24T10:59:22;99755.16;;;22.73;53.05
9893;BME280;4985;49.092;8.542;2023-05-24T11:01:58;99764.00;;;22.73;53.02
9893;BME280;4985;49.092;8.542;2023-05-24T11:04:30;99767.53;;;22.74;53.03
9893;BME280;4985;49.092;8.542;2023-05-24T11:07:00;99747.91;;;22.73;53.02
9893;BME280;4985;49.092;8.542;2023-05-24T11:09:27;99759.47;;;22.74;53.02
9893;BME280;4985;49.092;8.542;2023-05-24T11:11:55;99761.09;;;22.75;53.05
9893;BME280;4985;49.092;8.542;2023-05-24T11:14:28;99756.53;;;22.75;53.04
9893;BME280;4985;49.092;8.542;2023-05-24T11:16:56;99754.69;;;22.76;53.06
9893;BME280;4985;49.092;8.542;2023-05-24T11:19:31;99751.19;;;22.75;53.07
9893;BME280;4985;49.092;8.542;2023-05-24T11:22:00;99749.31;;;22.76;53.08
9893;BME280;4985;49.092;8.542;2023-05-24T11:24:27;99748.28;;;22.77;53.09
9893;BME280;4985;49.092;8.542;2023-05-24T11:26:54;99744.56;;;22.78;53.09
9893;BME280;4985;49.092;8.542;2023-05-24T11:29:22;99740.81;;;22.79;53.09
9893;BME280;4985;49.092;8.542;2023-05-24T11:31:50;99737.09;;;22.80;53.10
9893;BME280;4985;49.092;8.542;2023-05-24T11:34:18;99739.75;;;22.80;53.13
9893;BME280;4985;49.092;8.542;2023-05-24T11:36:46;99733.81;;;22.78;53.19
9893;BME280;4985;49.092;8.542;2023-05-24T11:39:13;99738.12;;;22.79;53.22
9893;BME280;4985;49.092;8.542;2023-05-24T11:41:40;99736.28;;;22.79;53.23
9893;BME280;4985;49.092;8.542;2023-05-24T11:44:08;99731.72;;;22.80;53.24
9893;BME280;4985;49.092;8.542;2023-05-24T11:46:37;99726.81;;;22.77;53.25
9893;BME280;4985;49.092;8.542;2023-05-24T11:49:04;99729.28;;;22.78;53.28
9893;BME280;4985;49.092;8.542;2023-05-24T11:51:32;99729.72;;;22.75;53.30
9893;BME280;4985;49.092;8.542;2023-05-24T11:54:00;99729.50;;;22.77;53.33
9893;BME280;4985;49.092;8.542;2023-05-24T11:56:28;99720.84;;;22.75;53.35
9893;BME280;4985;49.092;8.542;2023-05-24T11:59:02;99723.09;;;22.78;53.37
9893;BME280;4985;49.092;8.542;2023-05-24T12:01:33;99715.03;;;22.78;53.38
9893;BME280;4985;49.092;8.542;2023-05-24T12:04:00;99705.34;;;22.77;53.41
9893;BME280;4985;49.092;8.542;2023-05-24T12:06:33;99712.34;;;22.78;53.44
9893;BME280;4985;49.092;8.542;2023-05-24T12:09:02;99710.72;;;22.77;53.44
9893;BME280;4985;49.092;8.542;2023-05-24T12:11:32;99708.62;;;22.79;53.46
9893;BME280;4985;49.092;8.542;2023-05-24T12:13:58;99706.75;;;22.79;53.50
9893;BME280;4985;49.092;8.542;2023-05-24T12:16:26;99699.50;;;22.80;53.51
9893;BME280;4985;49.092;8.542;2023-05-24T12:18:56;99698.47;;;22.81;53.53
9893;BME280;4985;49.092;8.542;2023-05-24T12:21:23;99701.97;;;22.81;53.53
9893;BME280;4985;49.092;8.542;2023-05-24T12:23:49;99704.41;;;22.83;53.54
9893;BME280;4985;49.092;8.542;2023-05-24T12:26:18;99700.69;;;22.84;53.51
9893;BME280;4985;49.092;8.542;2023-05-24T12:28:52;99706.66;;;22.86;53.47
9893;BME280;4985;49.092;8.542;2023-05-24T12:31:19;99697.78;;;22.85;53.41
9893;BME280;4985;49.092;8.542;2023-05-24T12:33:46;99694.41;;;22.90;53.36
9893;BME280;4985;49.092;8.542;2023-05-24T12:36:12;99698.72;;;22.91;53.35
9893;BME280;4985;49.092;8.542;2023-05-24T12:38:39;99690.44;;;22.92;53.33
9893;BME280;4985;49.092;8.542;2023-05-24T12:41:06;99683.19;;;22.93;53.34
9893;BME280;4985;49.092;8.542;2023-05-24T12:43:35;99687.75;;;22.92;53.35
9893;BME280;4985;49.092;8.542;2023-05-24T12:46:03;99689.16;;;22.95;53.37
9893;BME280;4985;49.092;8.542;2023-05-24T12:48:29;99688.31;;;22.94;53.38
9893;BME280;4985;49.092;8.542;2023-05-24T12:50:56;99677.34;;;22.96;53.41
9893;BME280;4985;49.092;8.542;2023-05-24T12:53:22;99677.34;;;22.96;53.39
9893;BME280;4985;49.092;8.542;2023-05-24T12:55:50;99667.19;;;22.98;53.39
9893;BME280;4985;49.092;8.542;2023-05-24T12:58:20;99674.22;;;22.99;53.37
9893;BME280;4985;49.092;8.542;2023-05-24T13:00:48;99667.78;;;23.00;53.32
9893;BME280;4985;49.092;8.542;2023-05-24T13:03:16;99664.88;;;23.02;53.31
9893;BME280;4985;49.092;8.542;2023-05-24T13:05:43;99666.16;;;22.99;53.26
9893;BME280;4985;49.092;8.542;2023-05-24T13:08:10;99672.09;;;23.01;53.25
9893;BME280;4985;49.092;8.542;2023-05-24T13:10:37;99677.00;;;23.04;53.23
9893;BME280;4985;49.092;8.542;2023-05-24T13:13:04;99668.94;;;23.04;53.22
9893;BME280;4985;49.092;8.542;2023-05-24T13:15:31;99665.22;;;23.05;53.22
9893;BME280;4985;49.092;8.542;2023-05-24T13:17:59;99673.03;;;23.07;53.20
9893;BME280;4985;49.092;8.542;2023-05-24T13:20:26;99657.72;;;23.07;53.15
9893;BME280;4985;49.092;8.542;2023-05-24T13:22:53;99662.03;;;23.08;53.13
9893;BME280;4985;49.092;8.542;2023-05-24T13:25:20;99659.34;;;23.08;53.13
9893;BME280;4985;49.092;8.542;2023-05-24T13:27:47;99660.19;;;23.09;53.13
9893;BME280;4985;49.092;8.542;2023-05-24T13:30:14;99661.00;;;23.09;53.12
9893;BME280;4985;49.092;8.542;2023-05-24T13:32:41;99659.94;;;23.10;53.15